sensor_id;sensor_type;location;lat;lon;timestamp;temperature;humidity
28614;DHT22;15806;53.548;9.964;2022-10-31T00:01:13;23.50;99.90
28614;DHT22;15806;53.548;9.964;2022-10-31T00:02:54;23.30;99.90
28614;DHT22;15806;53.548;9.964;2022-10-31T00:04:35;23.10;99.90
28614;DHT22;15806;53.548;9.964;2022-10-31T00:06:16;23.00;99.90
28614;DHT22;15806;53.548;9.964;2022-10-31T00:07:56;22.70;99.90
28614;DHT22;15806;53.548;9.964;2022-10-31T00:09:37;22.50;99.90
28614;DHT22;15806;53.548;9.964;2022-10-31T00:11:17;22.30;99.90
28614;DHT22;15806;53.548;9.964;2022-10-31T00:12:58;22.30;99.90
28614;DHT22;15806;53.548;9.964;2022-10-31T00:14:38;22.20;99.90
28614;DHT22;15806;53.548;9.964;2022-10-31T00:16:23;22.20;99.90
28614;DHT22;15806;53.548;9.964;2022-10-31T00:18:04;22.00;99.90
28614;DHT22;15806;53.548;9.964;2022-10-31T00:19:45;21.90;99.90
28614;DHT22;15806;53.548;9.964;2022-10-31T00:21:26;21.90;99.90
28614;DHT22;15806;53.548;9.964;2022-10-31T00:23:07;21.80;99.90
28614;DHT22;15806;53.548;9.964;2022-10-31T00:24:47;21.80;99.90
28614;DHT22;15806;53.548;9.964;2022-10-31T00:26:29;21.70;99.90
28614;DHT22;15806;53.548;9.964;2022-10-31T00:28:11;21.70;99.90
28614;DHT22;15806;53.548;9.964;2022-10-31T00:29:51;21.60;99.90
28614;DHT22;15806;53.548;9.964;2022-10-31T00:31:32;21.60;99.90
28614;DHT22;15806;53.548;9.964;2022-10-31T00:33:12;21.60;99.90
28614;DHT22;15806;53.548;9.964;2022-10-31T00:34:53;21.60;99.90
28614;DHT22;15806;53.548;9.964;2022-10-31T00:36:33;21.60;99.90
28614;DHT22;15806;53.548;9.964;2022-10-31T00:38:14;21.50;99.90
28614;DHT22;15806;53.548;9.964;2022-10-31T00:39:54;21.50;99.90
28614;DHT22;15806;53.548;9.964;2022-10-31T00:41:35;21.50;99.90
28614;DHT22;15806;53.548;9.964;2022-10-31T00:43:15;21.50;99.90
28614;DHT22;15806;53.548;9.964;2022-10-31T00:44:56;21.50;99.90
28614;DHT22;15806;53.548;9.964;2022-10-31T00:46:36;21.50;99.90
28614;DHT22;15806;53.548;9.964;2022-10-31T00:48:17;21.50;99.90
28614;DHT22;15806;53.548;9.964;2022-10-31T00:49:57;21.50;99.90
28614;DHT22;15806;53.548;9.964;2022-10-31T00:51:38;21.50;99.90
28614;DHT22;15806;53.548;9.964;2022-10-31T00:53:18;21.60;99.90
28614;DHT22;15806;53.548;9.964;2022-10-31T00:54:59;21.60;99.90
28614;DHT22;15806;53.548;9.964;2022-10-31T00:56:40;21.60;99.90
28614;DHT22;15806;53.548;9.964;2022-10-31T00:58:21;21.60;99.90
28614;DHT22;15806;53.548;9.964;2022-10-31T01:00:02;21.60;99.90
28614;DHT22;15806;53.548;9.964;2022-10-31T01:01:43;21.60;99.90
28614;DHT22;15806;53.548;9.964;2022-10-31T01:03:28;21.70;99.90
28614;DHT22;15806;53.548;9.964;2022-10-31T01:05:09;21.70;99.90
28614;DHT22;15806;53.548;9.964;2022-10-31T01:06:49;21.70;99.90
28614;DHT22;15806;53.548;9.964;2022-10-31T01:08:30;21.80;99.90
28614;DHT22;15806;53.548;9.964;2022-10-31T01:10:11;21.80;99.90
28614;DHT22;15806;53.548;9.964;2022-10-31T01:11:51;21.90;99.90
28614;DHT22;15806;53.548;9.964;2022-10-31T01:13:32;22.00;99.90
28614;DHT22;15806;53.548;9.964;2022-10-31T01:15:19;22.10;99.90
28614;DHT22;15806;53.548;9.964;2022-10-31T01:17:00;22.10;99.90
28614;DHT22;15806;53.548;9.964;2022-10-31T01:18:41;22.10;99.90
28614;DHT22;15806;53.548;9.964;2022-10-31T01:20:21;22.10;99.90
28614;DHT22;15806;53.548;9.964;2022-10-31T01:22:02;22.20;99.90
28614;DHT22;15806;53.548;9.964;2022-10-31T01:23:42;22.20;99.90
28614;DHT22;15806;53.548;9.964;2022-10-31T01:25:23;22.20;99.90
28614;DHT22;15806;53.548;9.964;2022-10-31T01:27:03;22.20;99.90
28614;DHT22;15806;53.548;9.964;2022-10-31T01:28:56;22.30;99.90
28614;DHT22;15806;53.548;9.964;2022-10-31T01:30:37;22.30;99.90
28614;DHT22;15806;53.548;9.964;2022-10-31T01:32:17;22.40;99.90
28614;DHT22;15806;53.548;9.964;2022-10-31T01:33:58;22.40;99.90
28614;DHT22;15806;53.548;9.964;2022-10-31T01:35:39;22.50;99.90
28614;DHT22;15806;53.548;9.964;2022-10-31T01:37:20;22.60;99.90
28614;DHT22;15806;53.548;9.964;2022-10-31T01:39:04;22.60;99.90
28614;DHT22;15806;53.548;9.964;2022-10-31T01:40:45;22.60;99.90
28614;DHT22;15806;53.548;9.964;2022-10-31T01:42:26;22.60;99.90
28614;DHT22;15806;53.548;9.964;2022-10-31T01:45:56;22.70;99.90
28614;DHT22;15806;53.548;9.964;2022-10-31T01:47:44;22.70;99.90
28614;DHT22;15806;53.548;9.964;2022-10-31T01:50:03;22.70;99.90
28614;DHT22;15806;53.548;9.964;2022-10-31T01:51:53;22.70;99.90
28614;DHT22;15806;53.548;9.964;2022-10-31T01:53:35;22.70;99.90
28614;DHT22;15806;53.548;9.964;2022-10-31T01:55:30;22.80;99.90
28614;DHT22;15806;53.548;9.964;2022-10-31T01:57:13;22.80;99.90
28614;DHT22;15806;53.548;9.964;2022-10-31T01:58:56;22.90;99.90
28614;DHT22;15806;53.548;9.964;2022-10-31T02:00:38;23.00;99.90
28614;DHT22;15806;53.548;9.964;2022-10-31T02:02:19;23.00;99.90
28614;DHT22;15806;53.548;9.964;2022-10-31T02:04:00;23.10;99.90
28614;DHT22;15806;53.548;9.964;2022-10-31T02:05:41;23.20;99.90
28614;DHT22;15806;53.548;9.964;2022-10-31T02:07:32;23.20;99.90
28614;DHT22;15806;53.548;9.964;2022-10-31T02:09:15;23.20;99.90
28614;DHT22;15806;53.548;9.964;2022-10-31T02:10:57;23.30;99.90
28614;DHT22;15806;53.548;9.964;2022-10-31T02:12:39;23.30;99.90
28614;DHT22;15806;53.548;9.964;2022-10-31T02:14:22;23.50;99.90
28614;DHT22;15806;53.548;9.964;2022-10-31T02:16:04;23.50;99.90
28614;DHT22;15806;53.548;9.964;2022-10-31T02:17:45;23.50;99.90
28614;DHT22;15806;53.548;9.964;2022-10-31T02:21:22;23.70;99.90
28614;DHT22;15806;53.548;9.964;2022-10-31T02:23:12;23.70;99.90
28614;DHT22;15806;53.548;9.964;2022-10-31T02:37:21;24.10;99.90
28614;DHT22;15806;53.548;9.964;2022-10-31T02:45:04;24.30;99.90
28614;DHT22;15806;53.548;9.964;2022-10-31T02:46:58;24.30;99.90
28614;DHT22;15806;53.548;9.964;2022-10-31T02:48:41;24.30;99.90
28614;DHT22;15806;53.548;9.964;2022-10-31T02:50:29;24.40;99.90
28614;DHT22;15806;53.548;9.964;2022-10-31T02:52:28;24.40;99.90
28614;DHT22;15806;53.548;9.964;2022-10-31T02:54:21;24.50;99.90
28614;DHT22;15806;53.548;9.964;2022-10-31T02:57:50;24.60;99.90
28614;DHT22;15806;53.548;9.964;2022-10-31T02:59:32;24.60;99.90
28614;DHT22;15806;53.548;9.964;2022-10-31T03:03:25;24.80;99.90
28614;DHT22;15806;53.548;9.964;2022-10-31T03:07:03;24.80;99.90
28614;DHT22;15806;53.548;9.964;2022-10-31T03:11:06;24.80;99.90
28614;DHT22;15806;53.548;9.964;2022-10-31T03:14:43;24.90;99.90
28614;DHT22;15806;53.548;9.964;2022-10-31T03:16:48;24.90;99.90
28614;DHT22;15806;53.548;9.964;2022-10-31T03:18:37;25.20;99.90
28614;DHT22;15806;53.548;9.964;2022-10-31T03:20:24;25.20;99.90
28614;DHT22;15806;53.548;9.964;2022-10-31T03:22:22;25.30;99.90
28614;DHT22;15806;53.548;9.964;2022-10-31T03:24:05;25.40;99.90
28614;DHT22;15806;53.548;9.964;2022-10-31T03:25:47;25.50;99.90
28614;DHT22;15806;53.548;9.964;2022-10-31T03:27:32;25.50;99.90
28614;DHT22;15806;53.548;9.964;2022-10-31T03:29:16;25.50;99.90
28614;DHT22;15806;53.548;9.964;2022-10-31T03:30:58;25.60;99.90
28614;DHT22;15806;53.548;9.964;2022-10-31T03:32:52;25.70;99.90
28614;DHT22;15806;53.548;9.964;2022-10-31T03:34:36;25.80;99.90
28614;DHT22;15806;53.548;9.964;2022-10-31T03:36:18;25.90;99.90
28614;DHT22;15806;53.548;9.964;2022-10-31T03:38:00;25.90;99.90
28614;DHT22;15806;53.548;9.964;2022-10-31T03:39:43;25.90;99.90
28614;DHT22;15806;53.548;9.964;2022-10-31T03:41:28;26.00;99.90
28614;DHT22;15806;53.548;9.964;2022-10-31T03:43:14;26.10;99.90
28614;DHT22;15806;53.548;9.964;2022-10-31T03:45:06;26.10;99.90
28614;DHT22;15806;53.548;9.964;2022-10-31T03:46:48;26.20;99.90
28614;DHT22;15806;53.548;9.964;2022-10-31T03:48:29;26.20;99.90
28614;DHT22;15806;53.548;9.964;2022-10-31T03:50:11;26.30;99.90
28614;DHT22;15806;53.548;9.964;2022-10-31T03:52:02;26.40;99.90
28614;DHT22;15806;53.548;9.964;2022-10-31T03:53:56;26.40;99.90
28614;DHT22;15806;53.548;9.964;2022-10-31T03:56:21;26.50;99.90
28614;DHT22;15806;53.548;9.964;2022-10-31T03:57:48;26.50;99.90
28614;DHT22;15806;53.548;9.964;2022-10-31T03:59:35;26.70;99.90
28614;DHT22;15806;53.548;9.964;2022-10-31T04:01:19;26.70;99.90
28614;DHT22;15806;53.548;9.964;2022-10-31T04:03:15;26.70;99.90
28614;DHT22;15806;53.548;9.964;2022-10-31T04:04:58;26.80;99.90
28614;DHT22;15806;53.548;9.964;2022-10-31T04:06:41;26.80;99.90
28614;DHT22;15806;53.548;9.964;2022-10-31T04:08:26;26.90;99.90
28614;DHT22;15806;53.548;9.964;2022-10-31T04:10:10;26.90;99.90
28614;DHT22;15806;53.548;9.964;2022-10-31T04:11:53;27.00;99.90
28614;DHT22;15806;53.548;9.964;2022-10-31T04:13:36;27.00;99.90
28614;DHT22;15806;53.548;9.964;2022-10-31T04:15:19;27.00;99.90
28614;DHT22;15806;53.548;9.964;2022-10-31T04:17:03;27.10;99.90
28614;DHT22;15806;53.548;9.964;2022-10-31T04:18:45;27.10;99.90
28614;DHT22;15806;53.548;9.964;2022-10-31T04:20:44;27.20;99.90
28614;DHT22;15806;53.548;9.964;2022-10-31T04:22:24;27.30;99.90
28614;DHT22;15806;53.548;9.964;2022-10-31T04:24:05;27.40;99.90
28614;DHT22;15806;53.548;9.964;2022-10-31T04:25:46;27.40;99.90
28614;DHT22;15806;53.548;9.964;2022-10-31T04:27:27;27.50;99.90
28614;DHT22;15806;53.548;9.964;2022-10-31T04:29:07;27.50;99.90
28614;DHT22;15806;53.548;9.964;2022-10-31T04:30:48;27.50;99.90
28614;DHT22;15806;53.548;9.964;2022-10-31T04:32:28;27.60;99.90
28614;DHT22;15806;53.548;9.964;2022-10-31T04:34:09;27.70;99.90
28614;DHT22;15806;53.548;9.964;2022-10-31T04:35:49;27.70;99.90
28614;DHT22;15806;53.548;9.964;2022-10-31T04:37:30;27.70;99.90
28614;DHT22;15806;53.548;9.964;2022-10-31T04:39:10;27.80;99.90
28614;DHT22;15806;53.548;9.964;2022-10-31T04:40:51;27.80;99.90
28614;DHT22;15806;53.548;9.964;2022-10-31T04:42:32;28.00;99.90
28614;DHT22;15806;53.548;9.964;2022-10-31T04:44:12;28.10;99.90
28614;DHT22;15806;53.548;9.964;2022-10-31T04:45:53;28.10;99.90
28614;DHT22;15806;53.548;9.964;2022-10-31T04:47:33;28.10;99.90
28614;DHT22;15806;53.548;9.964;2022-10-31T04:49:14;28.20;99.90
28614;DHT22;15806;53.548;9.964;2022-10-31T04:51:01;28.30;99.90
28614;DHT22;15806;53.548;9.964;2022-10-31T04:52:44;28.40;99.90
28614;DHT22;15806;53.548;9.964;2022-10-31T04:54:24;28.40;99.90
28614;DHT22;15806;53.548;9.964;2022-10-31T04:56:05;28.40;99.90
28614;DHT22;15806;53.548;9.964;2022-10-31T04:57:48;28.40;99.90
28614;DHT22;15806;53.548;9.964;2022-10-31T04:59:28;28.50;99.90
28614;DHT22;15806;53.548;9.964;2022-10-31T05:01:09;28.50;99.90
28614;DHT22;15806;53.548;9.964;2022-10-31T05:02:55;28.50;99.90
28614;DHT22;15806;53.548;9.964;2022-10-31T05:04:35;28.60;99.90
28614;DHT22;15806;53.548;9.964;2022-10-31T05:06:16;28.60;99.90
28614;DHT22;15806;53.548;9.964;2022-10-31T05:07:57;28.60;99.90
28614;DHT22;15806;53.548;9.964;2022-10-31T05:09:37;28.70;99.90
28614;DHT22;15806;53.548;9.964;2022-10-31T05:11:18;28.70;99.90
28614;DHT22;15806;53.548;9.964;2022-10-31T05:13:00;28.70;99.90
28614;DHT22;15806;53.548;9.964;2022-10-31T05:14:41;28.80;99.90
28614;DHT22;15806;53.548;9.964;2022-10-31T05:16:21;28.80;99.90
28614;DHT22;15806;53.548;9.964;2022-10-31T05:18:02;28.80;99.90
28614;DHT22;15806;53.548;9.964;2022-10-31T05:19:43;28.90;99.90
28614;DHT22;15806;53.548;9.964;2022-10-31T05:21:23;28.90;99.90
28614;DHT22;15806;53.548;9.964;2022-10-31T05:23:04;28.90;99.90
28614;DHT22;15806;53.548;9.964;2022-10-31T05:24:44;28.90;99.90
28614;DHT22;15806;53.548;9.964;2022-10-31T05:26:25;29.00;99.90
28614;DHT22;15806;53.548;9.964;2022-10-31T05:28:05;29.00;99.90
28614;DHT22;15806;53.548;9.964;2022-10-31T05:29:46;29.00;99.90
28614;DHT22;15806;53.548;9.964;2022-10-31T05:31:26;29.10;99.90
28614;DHT22;15806;53.548;9.964;2022-10-31T05:33:07;29.00;99.90
28614;DHT22;15806;53.548;9.964;2022-10-31T05:34:47;29.10;99.90
28614;DHT22;15806;53.548;9.964;2022-10-31T05:36:28;29.10;99.90
28614;DHT22;15806;53.548;9.964;2022-10-31T05:38:08;29.10;99.90
28614;DHT22;15806;53.548;9.964;2022-10-31T05:39:49;29.10;99.90
28614;DHT22;15806;53.548;9.964;2022-10-31T05:41:29;29.10;99.90
28614;DHT22;15806;53.548;9.964;2022-10-31T05:43:10;29.00;99.90
28614;DHT22;15806;53.548;9.964;2022-10-31T05:44:51;29.00;99.90
28614;DHT22;15806;53.548;9.964;2022-10-31T05:46:31;29.00;99.90
28614;DHT22;15806;53.548;9.964;2022-10-31T05:48:12;29.00;99.90
28614;DHT22;15806;53.548;9.964;2022-10-31T05:49:52;29.00;99.90
28614;DHT22;15806;53.548;9.964;2022-10-31T05:51:33;29.00;99.90
28614;DHT22;15806;53.548;9.964;2022-10-31T05:53:14;29.10;99.90
28614;DHT22;15806;53.548;9.964;2022-10-31T05:54:55;29.10;99.90
28614;DHT22;15806;53.548;9.964;2022-10-31T05:56:35;29.20;99.90
28614;DHT22;15806;53.548;9.964;2022-10-31T05:58:16;29.30;99.90
28614;DHT22;15806;53.548;9.964;2022-10-31T05:59:56;29.30;99.90
28614;DHT22;15806;53.548;9.964;2022-10-31T06:01:37;29.30;99.90
28614;DHT22;15806;53.548;9.964;2022-10-31T06:03:17;29.40;99.90
28614;DHT22;15806;53.548;9.964;2022-10-31T06:04:58;29.50;99.90
28614;DHT22;15806;53.548;9.964;2022-10-31T06:06:38;29.70;99.90
28614;DHT22;15806;53.548;9.964;2022-10-31T06:08:19;29.60;99.90
28614;DHT22;15806;53.548;9.964;2022-10-31T06:10:00;29.60;99.90
28614;DHT22;15806;53.548;9.964;2022-10-31T06:11:41;29.70;99.90
28614;DHT22;15806;53.548;9.964;2022-10-31T06:13:21;29.70;99.90
28614;DHT22;15806;53.548;9.964;2022-10-31T06:15:02;29.70;99.90
28614;DHT22;15806;53.548;9.964;2022-10-31T06:16:42;29.70;99.90
28614;DHT22;15806;53.548;9.964;2022-10-31T06:18:23;29.70;99.90
28614;DHT22;15806;53.548;9.964;2022-10-31T06:20:04;29.70;99.90
28614;DHT22;15806;53.548;9.964;2022-10-31T06:21:45;29.60;99.90
28614;DHT22;15806;53.548;9.964;2022-10-31T06:23:25;29.60;99.90
28614;DHT22;15806;53.548;9.964;2022-10-31T06:25:06;29.60;99.90
28614;DHT22;15806;53.548;9.964;2022-10-31T06:26:46;29.70;99.90
28614;DHT22;15806;53.548;9.964;2022-10-31T06:28:27;29.70;99.90
28614;DHT22;15806;53.548;9.964;2022-10-31T06:30:08;29.80;99.90
28614;DHT22;15806;53.548;9.964;2022-10-31T06:31:51;29.90;99.90
28614;DHT22;15806;53.548;9.964;2022-10-31T06:33:34;29.90;99.90
28614;DHT22;15806;53.548;9.964;2022-10-31T06:35:14;29.90;99.90
28614;DHT22;15806;53.548;9.964;2022-10-31T06:36:55;29.90;99.90
28614;DHT22;15806;53.548;9.964;2022-10-31T06:38:36;29.90;99.90
28614;DHT22;15806;53.548;9.964;2022-10-31T06:40:17;30.00;99.90
28614;DHT22;15806;53.548;9.964;2022-10-31T06:41:58;30.10;99.90
28614;DHT22;15806;53.548;9.964;2022-10-31T06:43:38;30.00;99.90
28614;DHT22;15806;53.548;9.964;2022-10-31T06:45:19;30.10;99.90
28614;DHT22;15806;53.548;9.964;2022-10-31T06:47:00;30.20;99.90
28614;DHT22;15806;53.548;9.964;2022-10-31T06:48:43;30.20;99.90
28614;DHT22;15806;53.548;9.964;2022-10-31T06:50:24;30.20;99.90
28614;DHT22;15806;53.548;9.964;2022-10-31T06:52:05;30.20;99.90
28614;DHT22;15806;53.548;9.964;2022-10-31T06:53:45;30.30;99.90
28614;DHT22;15806;53.548;9.964;2022-10-31T06:55:26;30.30;99.90
28614;DHT22;15806;53.548;9.964;2022-10-31T06:57:07;30.30;99.90
28614;DHT22;15806;53.548;9.964;2022-10-31T06:58:47;30.30;99.90
28614;DHT22;15806;53.548;9.964;2022-10-31T07:00:29;30.20;99.90
28614;DHT22;15806;53.548;9.964;2022-10-31T07:02:10;30.30;99.90
28614;DHT22;15806;53.548;9.964;2022-10-31T07:03:51;30.30;99.90
28614;DHT22;15806;53.548;9.964;2022-10-31T07:05:32;30.30;99.90
28614;DHT22;15806;53.548;9.964;2022-10-31T07:07:12;30.40;99.90
28614;DHT22;15806;53.548;9.964;2022-10-31T07:08:53;30.50;99.90
28614;DHT22;15806;53.548;9.964;2022-10-31T07:10:35;30.20;99.90
28614;DHT22;15806;53.548;9.964;2022-10-31T07:12:16;30.00;99.90
28614;DHT22;15806;53.548;9.964;2022-10-31T07:13:56;30.10;99.90
28614;DHT22;15806;53.548;9.964;2022-10-31T07:15:38;30.10;99.90
28614;DHT22;15806;53.548;9.964;2022-10-31T07:17:19;30.20;99.90
28614;DHT22;15806;53.548;9.964;2022-10-31T07:19:03;30.20;99.90
28614;DHT22;15806;53.548;9.964;2022-10-31T07:20:43;30.30;99.90
28614;DHT22;15806;53.548;9.964;2022-10-31T07:22:24;30.30;99.90
28614;DHT22;15806;53.548;9.964;2022-10-31T07:24:04;30.20;99.90
28614;DHT22;15806;53.548;9.964;2022-10-31T07:25:45;30.20;99.90
28614;DHT22;15806;53.548;9.964;2022-10-31T07:27:25;30.20;99.90
28614;DHT22;15806;53.548;9.964;2022-10-31T07:29:06;30.20;99.90
28614;DHT22;15806;53.548;9.964;2022-10-31T07:30:54;30.30;99.90
28614;DHT22;15806;53.548;9.964;2022-10-31T07:32:42;30.30;99.90
28614;DHT22;15806;53.548;9.964;2022-10-31T07:34:22;30.50;99.90
28614;DHT22;15806;53.548;9.964;2022-10-31T07:36:03;30.40;99.90
28614;DHT22;15806;53.548;9.964;2022-10-31T07:37:44;30.50;99.90
28614;DHT22;15806;53.548;9.964;2022-10-31T07:39:24;30.40;99.90
28614;DHT22;15806;53.548;9.964;2022-10-31T07:41:05;30.50;99.90
28614;DHT22;15806;53.548;9.964;2022-10-31T07:42:47;30.40;99.90
28614;DHT22;15806;53.548;9.964;2022-10-31T07:44:28;30.30;99.90
28614;DHT22;15806;53.548;9.964;2022-10-31T07:46:08;30.30;99.90
28614;DHT22;15806;53.548;9.964;2022-10-31T07:47:51;30.30;99.90
28614;DHT22;15806;53.548;9.964;2022-10-31T07:49:32;30.30;99.90
28614;DHT22;15806;53.548;9.964;2022-10-31T07:51:12;30.40;99.90
28614;DHT22;15806;53.548;9.964;2022-10-31T07:53:07;30.50;99.90
28614;DHT22;15806;53.548;9.964;2022-10-31T07:54:48;30.40;99.90
28614;DHT22;15806;53.548;9.964;2022-10-31T07:56:28;30.40;99.90
28614;DHT22;15806;53.548;9.964;2022-10-31T07:58:13;30.50;99.90
28614;DHT22;15806;53.548;9.964;2022-10-31T07:59:54;30.50;99.90
28614;DHT22;15806;53.548;9.964;2022-10-31T08:01:34;30.70;99.90
28614;DHT22;15806;53.548;9.964;2022-10-31T08:03:17;30.90;99.90
28614;DHT22;15806;53.548;9.964;2022-10-31T08:04:57;31.00;99.90
28614;DHT22;15806;53.548;9.964;2022-10-31T08:06:38;31.20;99.90
28614;DHT22;15806;53.548;9.964;2022-10-31T08:08:18;31.10;99.90
28614;DHT22;15806;53.548;9.964;2022-10-31T08:09:59;31.20;99.90
28614;DHT22;15806;53.548;9.964;2022-10-31T08:11:39;31.40;99.90
28614;DHT22;15806;53.548;9.964;2022-10-31T08:13:20;31.40;99.90
28614;DHT22;15806;53.548;9.964;2022-10-31T08:15:01;31.60;99.90
28614;DHT22;15806;53.548;9.964;2022-10-31T08:16:41;31.70;99.90
28614;DHT22;15806;53.548;9.964;2022-10-31T08:18:22;31.80;99.90
28614;DHT22;15806;53.548;9.964;2022-10-31T08:20:03;31.70;99.90
28614;DHT22;15806;53.548;9.964;2022-10-31T08:21:44;31.70;99.90
28614;DHT22;15806;53.548;9.964;2022-10-31T08:23:25;31.60;99.90
28614;DHT22;15806;53.548;9.964;2022-10-31T08:25:05;31.70;99.90
28614;DHT22;15806;53.548;9.964;2022-10-31T08:26:46;31.80;99.90
28614;DHT22;15806;53.548;9.964;2022-10-31T08:28:27;31.80;99.90
28614;DHT22;15806;53.548;9.964;2022-10-31T08:30:07;31.90;99.90
28614;DHT22;15806;53.548;9.964;2022-10-31T08:31:48;32.00;99.90
28614;DHT22;15806;53.548;9.964;2022-10-31T08:33:28;32.20;99.90
28614;DHT22;15806;53.548;9.964;2022-10-31T08:35:09;32.20;99.90
28614;DHT22;15806;53.548;9.964;2022-10-31T08:36:49;31.60;99.90
28614;DHT22;15806;53.548;9.964;2022-10-31T08:38:30;31.40;99.90
28614;DHT22;15806;53.548;9.964;2022-10-31T08:40:11;31.30;99.90
28614;DHT22;15806;53.548;9.964;2022-10-31T08:41:51;31.30;99.90
28614;DHT22;15806;53.548;9.964;2022-10-31T08:43:32;31.20;99.90
28614;DHT22;15806;53.548;9.964;2022-10-31T08:45:12;31.30;99.90
28614;DHT22;15806;53.548;9.964;2022-10-31T08:46:53;31.20;99.90
28614;DHT22;15806;53.548;9.964;2022-10-31T08:48:33;31.20;99.90
28614;DHT22;15806;53.548;9.964;2022-10-31T08:50:14;31.30;99.90
28614;DHT22;15806;53.548;9.964;2022-10-31T08:51:55;31.40;99.90
28614;DHT22;15806;53.548;9.964;2022-10-31T08:53:35;31.30;99.90
28614;DHT22;15806;53.548;9.964;2022-10-31T08:55:16;31.40;99.90
28614;DHT22;15806;53.548;9.964;2022-10-31T08:56:56;31.50;99.90
28614;DHT22;15806;53.548;9.964;2022-10-31T08:58:37;31.40;99.90
28614;DHT22;15806;53.548;9.964;2022-10-31T09:00:17;31.20;99.90
28614;DHT22;15806;53.548;9.964;2022-10-31T09:01:58;31.20;99.90
28614;DHT22;15806;53.548;9.964;2022-10-31T09:03:38;31.20;99.90
28614;DHT22;15806;53.548;9.964;2022-10-31T09:05:19;31.10;99.90
28614;DHT22;15806;53.548;9.964;2022-10-31T09:06:59;31.20;99.90
28614;DHT22;15806;53.548;9.964;2022-10-31T09:08:40;31.20;99.90
28614;DHT22;15806;53.548;9.964;2022-10-31T09:10:20;31.30;99.90
28614;DHT22;15806;53.548;9.964;2022-10-31T09:12:01;31.40;99.90
28614;DHT22;15806;53.548;9.964;2022-10-31T09:13:41;31.40;99.90
28614;DHT22;15806;53.548;9.964;2022-10-31T09:15:22;31.60;99.90
28614;DHT22;15806;53.548;9.964;2022-10-31T09:17:02;31.70;99.90
28614;DHT22;15806;53.548;9.964;2022-10-31T09:18:43;31.80;99.90
28614;DHT22;15806;53.548;9.964;2022-10-31T09:20:23;32.00;99.90
28614;DHT22;15806;53.548;9.964;2022-10-31T09:22:04;32.00;99.90
28614;DHT22;15806;53.548;9.964;2022-10-31T09:23:45;31.80;99.90
28614;DHT22;15806;53.548;9.964;2022-10-31T09:25:26;32.10;99.90
28614;DHT22;15806;53.548;9.964;2022-10-31T09:27:07;32.40;99.90
28614;DHT22;15806;53.548;9.964;2022-10-31T09:28:47;32.50;99.90
28614;DHT22;15806;53.548;9.964;2022-10-31T09:30:30;32.60;99.90
28614;DHT22;15806;53.548;9.964;2022-10-31T09:32:10;32.70;99.90
28614;DHT22;15806;53.548;9.964;2022-10-31T09:33:53;32.80;99.90
28614;DHT22;15806;53.548;9.964;2022-10-31T09:35:33;32.90;99.90
28614;DHT22;15806;53.548;9.964;2022-10-31T09:37:14;32.90;99.90
28614;DHT22;15806;53.548;9.964;2022-10-31T09:38:55;33.00;99.90
28614;DHT22;15806;53.548;9.964;2022-10-31T09:40:36;33.00;99.90
28614;DHT22;15806;53.548;9.964;2022-10-31T09:44:28;33.10;99.90
28614;DHT22;15806;53.548;9.964;2022-10-31T09:46:23;32.70;99.90
28614;DHT22;15806;53.548;9.964;2022-10-31T09:48:24;32.60;99.90
28614;DHT22;15806;53.548;9.964;2022-10-31T09:50:24;32.40;99.90
28614;DHT22;15806;53.548;9.964;2022-10-31T09:52:33;32.10;99.90
28614;DHT22;15806;53.548;9.964;2022-10-31T09:54:34;32.10;99.90
28614;DHT22;15806;53.548;9.964;2022-10-31T09:56:18;32.20;99.90
28614;DHT22;15806;53.548;9.964;2022-10-31T09:58:00;32.20;99.90
28614;DHT22;15806;53.548;9.964;2022-10-31T09:59:43;32.30;99.90
28614;DHT22;15806;53.548;9.964;2022-10-31T10:03:35;32.30;99.90
28614;DHT22;15806;53.548;9.964;2022-10-31T10:07:59;32.30;99.90
28614;DHT22;15806;53.548;9.964;2022-10-31T10:09:36;32.30;99.90
28614;DHT22;15806;53.548;9.964;2022-10-31T10:20:17;32.40;99.90
28614;DHT22;15806;53.548;9.964;2022-10-31T10:24:12;32.40;99.90
28614;DHT22;15806;53.548;9.964;2022-10-31T10:26:05;32.40;99.90
28614;DHT22;15806;53.548;9.964;2022-10-31T10:30:17;32.50;99.90
28614;DHT22;15806;53.548;9.964;2022-10-31T10:32:01;32.60;99.90
28614;DHT22;15806;53.548;9.964;2022-10-31T10:34:02;32.60;99.90
28614;DHT22;15806;53.548;9.964;2022-10-31T10:35:57;32.40;99.90
28614;DHT22;15806;53.548;9.964;2022-10-31T10:37:42;32.40;99.90
28614;DHT22;15806;53.548;9.964;2022-10-31T10:39:32;32.60;99.90
28614;DHT22;15806;53.548;9.964;2022-10-31T10:41:23;32.60;99.90
28614;DHT22;15806;53.548;9.964;2022-10-31T10:45:17;33.00;99.90
28614;DHT22;15806;53.548;9.964;2022-10-31T10:46:59;33.20;99.90
28614;DHT22;15806;53.548;9.964;2022-10-31T10:48:43;33.30;99.90
28614;DHT22;15806;53.548;9.964;2022-10-31T10:50:31;33.50;99.90
28614;DHT22;15806;53.548;9.964;2022-10-31T10:58:31;33.40;99.90
28614;DHT22;15806;53.548;9.964;2022-10-31T11:00:20;33.30;99.90
28614;DHT22;15806;53.548;9.964;2022-10-31T11:02:02;32.80;99.90
28614;DHT22;15806;53.548;9.964;2022-10-31T11:03:45;32.50;99.90
28614;DHT22;15806;53.548;9.964;2022-10-31T11:05:38;32.60;99.90
28614;DHT22;15806;53.548;9.964;2022-10-31T11:07:20;32.90;99.90
28614;DHT22;15806;53.548;9.964;2022-10-31T11:09:08;33.10;99.90
28614;DHT22;15806;53.548;9.964;2022-10-31T11:11:04;33.20;99.90
28614;DHT22;15806;53.548;9.964;2022-10-31T11:14:58;33.30;99.90
28614;DHT22;15806;53.548;9.964;2022-10-31T11:16:48;33.20;99.90
28614;DHT22;15806;53.548;9.964;2022-10-31T11:18:31;33.00;99.90
28614;DHT22;15806;53.548;9.964;2022-10-31T11:21:53;32.60;99.90
28614;DHT22;15806;53.548;9.964;2022-10-31T11:23:34;32.30;99.90
28614;DHT22;15806;53.548;9.964;2022-10-31T11:27:31;32.40;99.90
28614;DHT22;15806;53.548;9.964;2022-10-31T11:29:23;32.10;99.90
28614;DHT22;15806;53.548;9.964;2022-10-31T11:31:13;32.30;99.90
28614;DHT22;15806;53.548;9.964;2022-10-31T11:32:55;32.50;99.90
28614;DHT22;15806;53.548;9.964;2022-10-31T11:34:41;32.50;99.90
28614;DHT22;15806;53.548;9.964;2022-10-31T11:36:29;32.50;99.90
28614;DHT22;15806;53.548;9.964;2022-10-31T11:38:19;32.60;99.90
28614;DHT22;15806;53.548;9.964;2022-10-31T11:40:03;32.60;99.90
28614;DHT22;15806;53.548;9.964;2022-10-31T11:41:44;32.60;99.90
28614;DHT22;15806;53.548;9.964;2022-10-31T11:43:25;32.70;99.90
28614;DHT22;15806;53.548;9.964;2022-10-31T11:45:18;32.50;99.90
28614;DHT22;15806;53.548;9.964;2022-10-31T11:47:12;32.60;99.90
28614;DHT22;15806;53.548;9.964;2022-10-31T11:48:54;32.40;99.90
28614;DHT22;15806;53.548;9.964;2022-10-31T11:50:38;32.20;99.90
28614;DHT22;15806;53.548;9.964;2022-10-31T11:54:02;32.20;99.90
28614;DHT22;15806;53.548;9.964;2022-10-31T11:55:45;32.20;99.90
28614;DHT22;15806;53.548;9.964;2022-10-31T11:57:32;32.00;99.90
28614;DHT22;15806;53.548;9.964;2022-10-31T11:59:30;32.00;99.90